Latest Coastal Weather Observations for Flinders Island Airport

IDT60701

Issued at 12:22 pm EDT Tuesday 2 March 2021 (issued every 10 minutes, with the page automatically refreshed every 10 minutes)

About coastal observations | Map of coastal stations | Coastal observations for TAS | Marine services | Other Formats
Station Details ID: 099005 Name: FLINDERS ISLAND AIRPORT Lat: -40.09 Lon: 148.00 Height: 9.0 m
Data from the previous 72 hours. | See also: Recent months at Flinders Island Airport
Date/Time
EDT
Wind Sea
Height
m
Swell Vis
km
Cloud Weather Temp
°C
Press
MSL
hPa
Rain since
9am
mm
Dir  Spd
kts
Gust
kts
Height
m
Period
s
Dir
02/12:00pm SW 13 18 - - - - 10 - - 17.5 1012.9 0.0
02/11:30am WSW 14 18 - - - - 10 Partly cloudy - 17.2 1013.0 0.0
02/11:00am SW 14 18 - - - - 10 - - 17.0 1012.8 0.0
02/10:30am SW 15 18 - - - - 10 Partly cloudy - 16.6 1012.7 0.0
02/10:00am SW 17 22 - - - - 10 Partly cloudy - 16.1 1012.5 0.0
02/09:30am SW 16 22 - - - - 10 Partly cloudy - 15.8 1012.2 0.0
02/09:00am SW 18 24 - - - - 10 Mostly clear - 15.3 1011.9 0.0
02/08:30am WSW 21 25 - - - - 10 Partly cloudy - 15.0 1011.7 0.0
02/08:00am WSW 20 26 - - - - 10 Partly cloudy - 14.1 1011.4 0.0
02/07:30am WSW 21 27 - - - - 10 Partly cloudy - 13.8 1010.9 0.0
02/07:00am WSW 23 28 - - - - 10 Partly cloudy - 13.5 1010.7 0.0
02/06:30am WSW 22 28 - - - - 10 Partly cloudy - 13.4 1010.3 0.0
02/06:00am WSW 24 29 - - - - 10 Mostly cloudy - 13.8 1010.4 0.0
02/05:30am WSW 23 29 - - - - 10 Partly cloudy - 13.9 1010.2 0.0
02/05:00am WSW 24 30 - - - - 10 Partly cloudy - 14.0 1009.6 0.0
02/04:30am WSW 27 32 - - - - 10 Partly cloudy - 14.2 1009.7 0.0
02/04:00am WSW 27 33 - - - - 10 Partly cloudy - 14.1 1009.4 0.0
02/03:30am WSW 28 35 - - - - 10 Partly cloudy - 14.0 1008.8 0.0
02/03:00am WSW 29 35 - - - - 10 Mostly clear - 13.9 1008.4 0.0
02/02:30am WSW 31 40 - - - - 10 Partly cloudy - 14.0 1008.3 0.0
02/02:16am WSW 30 40 - - - - 10 Partly cloudy - 13.9 1008.4 0.0
02/02:00am WSW 31 39 - - - - 10 Partly cloudy - 13.9 1008.2 0.0
02/01:30am WSW 33 42 - - - - 10 Partly cloudy - 14.0 1008.0 0.0
02/01:27am WSW 32 42 - - - - 10 Partly cloudy - 14.0 1008.1 0.0
02/01:00am WSW 32 39 - - - - 10 Partly cloudy - 13.9 1007.9 0.0
02/12:45am WSW 36 46 - - - - 10 Partly cloudy - 13.8 1007.7 0.0
02/12:30am WSW 35 42 - - - - 10 Partly cloudy - 14.1 1007.7 0.0
02/12:00am WSW 36 43 - - - - 10 Mostly clear - 14.0 1007.7 0.0
 
Date/Time
EDT
Wind Sea
Height
m
Swell Vis
km
Cloud Weather Temp
°C
Press
MSL
hPa
Rain since
9am
mm
Dir  Spd
kts
Gust
kts
Height
m
Period
s
Dir
01/11:30pm WSW 36 43 - - - - 10 Partly cloudy - 14.1 1007.6 0.0
01/11:00pm WSW 35 44 - - - - 10 Partly cloudy - 14.1 1008.0 0.0
01/10:30pm WSW 35 44 - - - - 10 Partly cloudy - 14.4 1007.9 0.0
01/10:01pm WSW 37 47 - - - - 10 Partly cloudy - 14.5 1007.5 0.0
01/10:00pm WSW 37 45 - - - - 10 Partly cloudy - 14.5 1007.4 0.0
01/09:30pm WSW 36 46 - - - - 10 Partly cloudy - 14.7 1007.1 0.0
01/09:06pm WSW 34 45 - - - - 10 Partly cloudy - 14.8 1006.9 0.0
01/09:00pm WSW 34 42 - - - - 10 Cloudy - 14.7 1006.9 0.0
01/08:46pm W 35 45 - - - - 10 Partly cloudy - 15.1 1006.8 0.0
01/08:30pm W 34 42 - - - - 10 Partly cloudy - 15.3 1006.7 0.0
01/08:14pm W 34 44 - - - - 10 Partly cloudy - 15.7 1006.2 0.0
01/08:00pm W 35 43 - - - - 10 Partly cloudy - 15.6 1006.1 0.0
01/07:32pm W 34 45 - - - - 10 Partly cloudy - 15.9 1005.8 0.0
01/07:30pm W 34 43 - - - - 10 Partly cloudy - 15.9 1005.8 0.0
01/07:00pm W 33 43 - - - - 10 Partly cloudy - 16.5 1005.5 0.0
01/06:30pm W 35 46 - - - - 10 Partly cloudy - 16.7 1005.5 0.0
01/06:00pm W 34 41 - - - - 10 Cloudy - 17.7 1005.3 0.0
01/05:30pm W 28 38 - - - - 10 Partly cloudy - 18.1 1004.9 0.0
01/05:24pm W 27 38 - - - - 10 Partly cloudy - 18.8 1004.9 0.0
01/05:00pm W 28 36 - - - - 10 Partly cloudy - 18.5 1005.0 0.0
01/04:31pm W 26 36 - - - - 10 Partly cloudy - 17.8 1005.3 0.0
01/04:30pm W 26 35 - - - - 10 Partly cloudy - 18.0 1005.2 0.0
01/04:27pm W 25 35 - - - - 10 Partly cloudy - 18.0 1005.3 0.0
01/04:00pm W 26 34 - - - - 10 Partly cloudy - 19.4 1005.5 0.0
01/03:30pm W 24 30 - - - - 10 Partly cloudy - 18.8 1005.7 0.0
01/03:00pm W 23 28 - - - - 10 Mostly clear - 20.0 1005.9 0.0
01/02:30pm W 25 30 - - - - 10 Partly cloudy - 19.9 1006.1 0.0
01/02:00pm W 21 26 - - - - 10 Partly cloudy - 19.9 1006.2 0.0
01/01:30pm WNW 18 22 - - - - 10 Partly cloudy - 18.7 1006.5 0.0
01/01:00pm W 19 23 - - - - 10 Partly cloudy - 20.1 1006.8 0.0
01/12:30pm W 18 22 - - - - 10 Partly cloudy - 19.9 1007.0 0.0
01/12:00pm W 18 21 - - - - 10 Mostly cloudy - 20.7 1007.0 0.0
01/11:37am WNW 15 18 - - - - 10 Partly cloudy - 20.4 1007.3 0.0
01/11:30am WNW 15 20 - - - - 10 Partly cloudy - 20.3 1007.2 0.0
01/11:14am WNW 14 17 - - - - 10 Partly cloudy - 20.5 1007.2 0.0
01/11:00am NW 14 17 - - - - 10 Partly cloudy - 20.8 1007.3 0.0
01/10:30am WNW 12 15 - - - - 10 Partly cloudy - 20.7 1007.6 0.0
01/10:00am WNW 7 11 - - - - 10 Partly cloudy - 19.4 1007.5 0.0
01/09:30am WNW 7 9 - - - - 10 Partly cloudy - 19.0 1007.7 0.0
01/09:00am NE 2 6 - - - - 10 Cloudy - 17.9 1007.8 0.0
01/08:30am ENE 4 5 - - - - 10 Partly cloudy - 15.4 1007.9 0.0
01/08:00am ENE 7 8 - - - - 10 Partly cloudy - 13.4 1007.8 0.0
01/07:30am ENE 6 6 - - - - 10 Partly cloudy - 12.4 1008.1 0.0
01/07:00am ENE 6 7 - - - - 10 Partly cloudy - 11.6 1008.0 0.0
01/06:30am ENE 7 8 - - - - 10 Partly cloudy - 11.3 1008.0 0.0
01/06:00am ENE 7 8 - - - - 10 Cloudy - 11.5 1007.9 0.0
01/05:30am ENE 7 8 - - - - 10 Cloudy - 10.8 1008.1 0.0
01/05:00am ENE 6 7 - - - - 10 Partly cloudy - 10.5 1008.3 0.0
01/04:30am ENE 7 8 - - - - 10 Partly cloudy - 10.3 1008.3 0.0
01/04:00am ENE 7 8 - - - - 10 - - 9.9 1008.7 0.0
01/03:30am ENE 5 6 - - - - 10 - - 10.3 1009.0 0.0
01/03:00am ENE 5 6 - - - - 10 Cloudy - 10.4 1009.1 0.0
01/02:30am ENE 5 7 - - - - 10 Partly cloudy - 10.4 1009.2 0.0
01/02:00am NE 4 6 - - - - 10 - - 11.0 1009.5 0.0
01/01:30am NE 7 8 - - - - 10 - - 10.7 1009.6 0.0
01/01:00am ENE 4 5 - - - - 10 - - 10.7 1009.9 0.0
01/12:30am ENE 8 9 - - - - 10 Partly cloudy - 10.5 1010.2 0.0
01/12:00am ENE 7 8 - - - - 10 - - 9.9 1010.4 0.0
 
Date/Time
EDT
Wind Sea
Height
m
Swell Vis
km
Cloud Weather Temp
°C
Press
MSL
hPa
Rain since
9am
mm
Dir  Spd
kts
Gust
kts
Height
m
Period
s
Dir
28/11:30pm NE 8 9 - - - - 10 - - 11.7 1010.5 0.0
28/11:00pm ENE 7 7 - - - - 10 - - 10.0 1010.9 0.0
28/10:30pm NE 6 7 - - - - 10 - - 10.9 1010.9 0.0
28/10:00pm ENE 8 8 - - - - 10 - - 11.6 1010.9 0.0
28/09:30pm E 6 7 - - - - 10 - - 12.5 1011.4 0.0
28/09:00pm NNE 2 6 - - - - 10 Partly cloudy - 13.3 1011.1 0.0
28/08:30pm NNW 4 5 - - - - 10 - - 15.1 1011.1 0.0
28/08:00pm CALM 0 0 - - - - 10 - - 16.4 1010.8 0.0
28/07:30pm WSW 4 5 - - - - 10 Partly cloudy - 17.9 1011.0 0.0
28/07:00pm SW 5 6 - - - - 10 - - 19.2 1011.0 0.0
28/06:30pm W 7 8 - - - - 10 Partly cloudy - 19.7 1011.1 0.0
28/06:00pm W 7 9 - - - - 10 Mostly clear - 19.3 1010.9 0.0
28/05:30pm WSW 7 9 - - - - 10 Partly cloudy - 20.0 1010.9 0.0
28/05:00pm SW 7 8 - - - - 10 - - 20.4 1011.0 0.0
28/04:30pm SW 7 9 - - - - 10 - - 20.0 1011.1 0.0
28/04:00pm WSW 7 10 - - - - 10 Partly cloudy - 20.3 1011.3 0.0
28/03:30pm WSW 8 10 - - - - 10 Partly cloudy - 20.4 1011.5 0.0
28/03:00pm WSW 8 11 - - - - 10 - - 20.1 1011.9 0.0
28/02:30pm WSW 9 10 - - - - 10 - - 20.3 1012.0 0.0
28/02:00pm SW 8 10 - - - - 10 - - 20.2 1012.2 0.0
28/01:30pm SW 8 9 - - - - 10 - - 19.5 1012.5 0.0
28/01:25pm SW 8 9 - - - - 10 - - 19.6 1012.5 0.0
28/01:15pm SW 8 9 - - - - 5 - - 19.8 1012.6 0.0
28/01:00pm SW 8 9 - - - - 10 - - 19.6 1012.8 0.0
28/12:30pm SW 8 10 - - - - 10 - - 19.7 1013.0 0.0
28/12:00pm SW 7 8 - - - - 10 - - 19.2 1013.5 0.0
28/11:30am SW 6 8 - - - - 10 - - 18.9 1013.7 0.0
28/11:00am SSW 6 7 - - - - 10 - - 19.4 1013.8 0.0
28/10:30am WSW 6 7 - - - - 10 - - 18.6 1014.1 0.0
28/10:00am SSW 6 8 - - - - 10 - - 18.5 1013.9 0.0
28/09:30am ESE 4 6 - - - - 10 - - 17.2 1013.6 0.0
28/09:00am CALM 0 4 - - - - 10 - - 17.0 1013.6 0.0
28/08:30am ENE 4 5 - - - - 10 - - 14.5 1013.7 0.0
28/08:00am ENE 7 8 - - - - 10 - - 11.8 1013.5 0.0
28/07:30am ENE 6 7 - - - - 10 - - 8.8 1013.4 0.0
28/07:00am ENE 7 8 - - - - 10 - - 7.4 1013.2 0.0
28/06:30am ENE 7 8 - - - - 10 - - 7.3 1012.8 0.0
28/06:00am ENE 7 7 - - - - 10 - - 7.9 1012.7 0.0
28/05:30am ENE 7 8 - - - - 10 - - 8.7 1012.7 0.0
28/05:00am ENE 6 7 - - - - 10 - - 8.3 1012.7 0.0
28/04:30am ENE 6 8 - - - - 10 - - 8.8 1013.1 0.0
28/04:00am ENE 6 8 - - - - 10 Partly cloudy - 8.3 1013.1 0.0
28/03:30am ENE 6 7 - - - - 10 - - 8.5 1013.2 0.0
28/03:00am ENE 6 6 - - - - 10 - - 8.7 1013.3 0.0
28/02:30am ENE 6 7 - - - - 10 - - 9.1 1013.1 0.0
28/02:00am ENE 5 5 - - - - 10 - - 9.9 1013.3 0.0
28/01:30am ENE 4 6 - - - - 10 - - 10.5 1013.5 0.0
28/01:00am ENE 5 6 - - - - 10 - - 10.8 1013.9 0.0
28/12:30am ENE 4 5 - - - - 10 - - 11.1 1014.0 0.0
28/12:00am ENE 4 6 - - - - 10 Partly cloudy - 12.1 1014.0 0.0
 
Date/Time
EDT
Wind Sea
Height
m
Swell Vis
km
Cloud Weather Temp
°C
Press
MSL
hPa
Rain since
9am
mm
Dir  Spd
kts
Gust
kts
Height
m
Period
s
Dir
27/11:30pm ENE 5 7 - - - - 10 - - 12.9 1014.1 0.0
27/11:00pm ENE 5 7 - - - - 10 - - 14.1 1014.2 0.0
27/10:30pm E 5 7 - - - - 10 - - 15.4 1014.1 0.0
27/10:00pm ENE 5 6 - - - - 10 - - 15.2 1014.0 0.0
27/09:30pm E 5 7 - - - - 10 - - 15.6 1013.8 0.0
27/09:00pm E 4 5 - - - - 10 Mostly cloudy - 15.9 1013.7 0.0
27/08:30pm E 4 6 - - - - 10 - - 16.2 1013.4 0.0
27/08:00pm ESE 4 6 - - - - 10 - - 16.4 1013.1 0.0
27/07:30pm ESE 4 5 - - - - 10 - - 16.9 1013.0 0.0
27/07:00pm SE 5 7 - - - - 10 - - 17.5 1012.9 0.0
27/06:30pm SSE 6 8 - - - - 10 Partly cloudy - 18.1 1012.9 0.0
27/06:00pm SSE 7 9 - - - - 10 Cloudy - 18.3 1012.8 0.0
27/05:30pm S 7 9 - - - - 10 - - 18.6 1012.9 0.0
27/05:00pm SSW 8 10 - - - - 10 Partly cloudy - 18.7 1012.9 0.0
27/04:30pm S 8 9 - - - - 10 Partly cloudy - 19.0 1013.1 0.0
27/04:00pm S 9 11 - - - - 10 - - 19.0 1013.1 0.0
27/03:30pm SSW 8 10 - - - - 10 - - 19.3 1013.2 0.0
27/03:00pm SSW 8 10 - - - - 10 Mostly cloudy - 19.5 1013.4 0.0
27/02:30pm SSW 7 9 - - - - 10 Partly cloudy - 19.3 1013.7 0.0
27/02:00pm SSW 8 10 - - - - 10 Partly cloudy - 19.6 1013.9 0.0
27/01:30pm SSW 7 8 - - - - 10 Partly cloudy - 18.8 1013.8 0.0
27/01:00pm S 6 9 - - - - 10 Partly cloudy - 18.8 1013.8 0.0
27/12:30pm ESE 6 9 - - - - 10 - - 19.3 1014.0 0.0

Other formats

Comma delimited format used in spreadsheet applications
http://www.bom.gov.au/fwo/IDT60701/IDT60701.94980.axf

JavaScript Object Notation format (JSON) in row-major order
http://www.bom.gov.au/fwo/IDT60701/IDT60701.94980.json

Data quality

Most of these data are generated automatically and are frequently updated. Quality checks on data are not normally performed. It is possible for incorrect values to appear. Refer to information at About Latest Weather Observations and please check the disclaimer before using these data.